createdAt,value
2018-06-13T00:00:27.749Z,21.45
2018-06-13T00:01:37.825Z,21.68
2018-06-13T00:02:47.629Z,21.64
2018-06-13T00:03:57.734Z,21.51
2018-06-13T00:05:07.288Z,21.62
2018-06-13T00:06:16.585Z,21.55
2018-06-13T00:07:26.676Z,21.55
2018-06-13T00:08:36.888Z,21.61
2018-06-13T00:09:46.961Z,21.59
2018-06-13T00:10:57.041Z,21.51
2018-06-13T00:12:07.134Z,21.53
2018-06-13T00:13:17.324Z,21.56
2018-06-13T00:14:27.397Z,21.53
2018-06-13T00:15:37.476Z,21.43
2018-06-13T00:16:47.550Z,21.46
2018-06-13T00:17:57.618Z,21.37
2018-06-13T00:19:07.717Z,21.28
2018-06-13T00:20:17.799Z,21.33
2018-06-13T00:21:27.346Z,21.25
2018-06-13T00:22:37.423Z,21.21
2018-06-13T00:23:47.221Z,21.18
2018-06-13T00:24:57.316Z,21.19
2018-06-13T00:26:07.159Z,21.21
2018-06-13T00:27:17.231Z,21.19
2018-06-13T00:28:27.051Z,21.16
2018-06-13T00:29:37.209Z,21.21
2018-06-13T00:30:47.287Z,21.21
2018-06-13T00:31:57.380Z,21.21
2018-06-13T00:33:07.448Z,21.19
2018-06-13T00:34:17.519Z,21.19
2018-06-13T00:35:27.600Z,21.21
2018-06-13T00:36:37.675Z,21.16
2018-06-13T00:37:47.808Z,21.06
2018-06-13T00:38:57.882Z,21.11
2018-06-13T00:40:07.704Z,21.13
2018-06-13T00:41:17.511Z,21.12
2018-06-13T00:42:27.319Z,21.09
2018-06-13T00:43:37.419Z,21.08
2018-06-13T00:44:47.222Z,21.21
2018-06-13T00:45:57.021Z,21.04
2018-06-13T00:47:06.934Z,21.15
2018-06-13T00:48:16.960Z,21.13
2018-06-13T00:49:26.979Z,21.06
2018-06-13T00:50:37.074Z,21.04
2018-06-13T00:51:47.099Z,21.06
2018-06-13T00:52:57.108Z,21.08
2018-06-13T00:54:07.144Z,20.98
2018-06-13T00:55:17.154Z,21.06
2018-06-13T00:56:27.180Z,21.03
2018-06-13T00:57:36.951Z,21.03
2018-06-13T00:58:46.941Z,20.93
2018-06-13T00:59:56.704Z,20.93
2018-06-13T01:01:06.205Z,20.94
2018-06-13T01:02:16.207Z,20.94
2018-06-13T01:03:26.214Z,20.93
2018-06-13T01:04:36.226Z,21.03
2018-06-13T01:05:45.978Z,20.97
2018-06-13T01:06:55.768Z,20.93
2018-06-13T01:08:05.790Z,21.01
2018-06-13T01:09:15.833Z,20.96
2018-06-13T01:10:25.912Z,20.96
2018-06-13T01:11:35.986Z,20.91
2018-06-13T01:12:45.789Z,20.93
2018-06-13T01:13:55.870Z,20.9
2018-06-13T01:15:05.960Z,20.91
2018-06-13T01:16:16.026Z,20.94
2018-06-13T01:17:26.081Z,20.94
2018-06-13T01:18:35.891Z,20.86
2018-06-13T01:19:45.968Z,20.9
2018-06-13T01:20:55.789Z,20.85
2018-06-13T01:22:05.852Z,20.85
2018-06-13T01:23:16.114Z,20.81
2018-06-13T01:24:26.191Z,20.85
2018-06-13T01:25:36.015Z,20.86
2018-06-13T01:26:46.104Z,20.86
2018-06-13T01:27:55.905Z,20.88
2018-06-13T01:29:05.969Z,20.94
2018-06-13T01:30:16.112Z,20.98
2018-06-13T01:31:26.195Z,20.88
2018-06-13T01:32:36.272Z,20.91
2018-06-13T01:33:46.350Z,20.9
2018-06-13T01:34:56.176Z,20.86
2018-06-13T01:36:06.316Z,20.82
2018-06-13T01:37:16.439Z,20.83
2018-06-13T01:38:26.507Z,20.81
2018-06-13T01:39:36.586Z,20.76
2018-06-13T01:40:46.655Z,20.83
2018-06-13T01:41:56.506Z,20.86
2018-06-13T01:43:06.562Z,20.85
2018-06-13T01:44:16.659Z,20.76
2018-06-13T01:45:26.720Z,20.76
2018-06-13T01:46:36.988Z,20.81
2018-06-13T01:47:47.099Z,20.74
2018-06-13T01:48:57.156Z,20.75
2018-06-13T01:50:06.707Z,20.76
2018-06-13T01:51:16.776Z,20.78
2018-06-13T01:52:26.856Z,20.78
2018-06-13T01:53:36.977Z,20.79
2018-06-13T01:54:46.794Z,20.78
2018-06-13T01:55:56.860Z,20.72
2018-06-13T01:57:06.690Z,20.75
2018-06-13T01:58:16.754Z,20.74
2018-06-13T01:59:26.563Z,20.76
2018-06-13T02:00:36.359Z,20.79
2018-06-13T02:01:46.156Z,20.76
2018-06-13T02:02:56.230Z,20.75
2018-06-13T02:04:06.315Z,20.72
2018-06-13T02:05:16.133Z,20.72
2018-06-13T02:06:25.987Z,20.75
2018-06-13T02:07:36.068Z,20.78
2018-06-13T02:08:46.121Z,20.74
2018-06-13T02:09:56.201Z,20.72
2018-06-13T02:11:06.281Z,20.75
2018-06-13T02:12:16.354Z,20.75
2018-06-13T02:13:26.158Z,20.75
2018-06-13T02:14:35.968Z,20.72
2018-06-13T02:15:46.050Z,20.72
2018-06-13T02:16:56.123Z,20.67
2018-06-13T02:18:05.673Z,20.68
2018-06-13T02:19:15.759Z,20.63
2018-06-13T02:20:25.829Z,20.63
2018-06-13T02:21:35.935Z,20.63
2018-06-13T02:22:46.128Z,20.63
2018-06-13T02:23:55.683Z,20.6
2018-06-13T02:25:05.506Z,20.6
2018-06-13T02:26:15.581Z,20.61
2018-06-13T02:27:25.464Z,20.63
2018-06-13T02:28:35.626Z,20.42
2018-06-13T02:29:45.705Z,20.54
2018-06-13T02:30:55.797Z,20.53
2018-06-13T02:32:05.612Z,20.51
2018-06-13T02:33:15.698Z,20.57
2018-06-13T02:34:25.513Z,20.54
2018-06-13T02:35:35.610Z,20.56
2018-06-13T02:36:45.704Z,20.54
2018-06-13T02:37:55.786Z,20.54
2018-06-13T02:39:06.238Z,20.57
2018-06-13T02:40:16.368Z,20.61
2018-06-13T02:41:26.440Z,20.51
2018-06-13T02:42:36.540Z,20.57
2018-06-13T02:43:46.628Z,20.58
2018-06-13T02:44:56.719Z,20.64
2018-06-13T02:46:06.787Z,20.61
2018-06-13T02:47:16.614Z,20.58
2018-06-13T02:48:26.748Z,20.63
2018-06-13T02:49:36.567Z,20.71
2018-06-13T02:50:46.645Z,20.76
2018-06-13T02:51:56.729Z,20.83
2018-06-13T02:53:06.846Z,20.75
2018-06-13T02:54:16.948Z,20.88
2018-06-13T02:55:27.020Z,20.94
2018-06-13T02:56:37.086Z,20.98
2018-06-13T02:57:46.629Z,20.94
2018-06-13T02:58:56.191Z,20.94
2018-06-13T03:00:06.323Z,20.94
2018-06-13T03:01:16.227Z,21.04
2018-06-13T03:02:26.297Z,21.08
2018-06-13T03:34:53.150Z,19.9
2018-06-13T03:36:03.203Z,19.86
2018-06-13T03:37:13.266Z,19.93
2018-06-13T03:38:23.344Z,20
2018-06-13T03:39:33.421Z,20.11
2018-06-13T03:40:43.226Z,20.15
2018-06-13T03:41:53.306Z,20.26
2018-06-13T03:43:03.121Z,20.27
2018-06-13T03:44:13.195Z,20.44
2018-06-13T03:45:23.268Z,20.48
2018-06-13T03:46:33.351Z,20.6
2018-06-13T03:47:43.436Z,20.71
2018-06-13T03:48:53.244Z,20.91
2018-06-13T03:50:03.062Z,21.06
2018-06-13T03:51:13.132Z,21.21
2018-06-13T03:52:37.830Z,21.45
2018-06-13T03:53:47.653Z,21.61
2018-06-13T03:54:57.728Z,21.68
2018-06-13T03:56:07.818Z,21.83
2018-06-13T03:57:17.938Z,22
2018-06-13T03:58:27.503Z,22.22
2018-06-13T03:59:37.300Z,22.31
2018-06-13T04:00:47.377Z,22.55
2018-06-13T04:01:57.572Z,22.61
2018-06-13T04:03:07.662Z,22.78
2018-06-13T04:04:17.737Z,22.96
2018-06-13T04:05:27.873Z,22.91
2018-06-13T04:06:37.692Z,23.1
2018-06-13T04:07:47.816Z,23.1
2018-06-13T04:08:57.898Z,23.09
2018-06-13T04:10:07.727Z,23.04
2018-06-13T04:11:17.552Z,23.07
2018-06-13T04:12:27.642Z,23.14
2018-06-13T04:13:37.539Z,23.16
2018-06-13T04:14:47.374Z,23.24
2018-06-13T04:15:57.450Z,23.38
2018-06-13T04:17:07.522Z,23.5
2018-06-13T04:18:17.606Z,23.6
2018-06-13T04:19:27.420Z,23.89
2018-06-13T04:20:37.226Z,24.07
2018-06-13T04:21:47.299Z,24.18
2018-06-13T04:22:57.384Z,24.29
2018-06-13T04:24:07.464Z,24.3
2018-06-13T04:25:17.542Z,24.32
2018-06-13T04:26:27.346Z,24.3
2018-06-13T04:27:37.431Z,24.15
2018-06-13T04:28:47.241Z,24.12
2018-06-13T04:29:57.322Z,23.87
2018-06-13T04:31:07.183Z,23.79
2018-06-13T04:32:17.009Z,23.6
2018-06-13T04:33:26.556Z,23.55
2018-06-13T04:34:36.626Z,23.55
2018-06-13T04:35:46.553Z,23.57
2018-06-13T04:36:56.401Z,23.55
2018-06-13T04:38:06.465Z,23.48
2018-06-13T04:39:16.543Z,23.42
2018-06-13T04:40:26.635Z,23.26
2018-06-13T04:41:36.466Z,23.22
2018-06-13T04:42:46.289Z,23.22
2018-06-13T04:43:56.350Z,23.21
2018-06-13T04:45:06.434Z,23.25
2018-06-13T04:46:16.257Z,23.22
2018-06-13T04:47:26.323Z,23.25
2018-06-13T04:48:36.185Z,23.32
2018-06-13T04:49:45.725Z,23.52
2018-06-13T04:50:55.810Z,23.48
2018-06-13T04:52:05.616Z,23.64
2018-06-13T04:53:15.682Z,23.67
2018-06-13T04:54:25.756Z,23.81
2018-06-13T04:55:35.847Z,23.87
2018-06-13T04:56:45.918Z,23.93
2018-06-13T04:57:55.740Z,23.92
2018-06-13T04:59:05.547Z,23.92
2018-06-13T05:00:15.704Z,24.03
2018-06-13T05:01:25.782Z,23.96
2018-06-13T05:02:35.608Z,23.94
2018-06-13T05:03:45.428Z,24
2018-06-13T05:04:55.512Z,23.94
2018-06-13T05:06:05.643Z,23.97
2018-06-13T05:07:15.715Z,23.99
2018-06-13T05:08:25.803Z,23.99
2018-06-13T05:09:35.865Z,24.15
2018-06-13T05:10:45.946Z,24.33
2018-06-13T05:11:55.809Z,24.46
2018-06-13T05:13:05.900Z,24.55
2018-06-13T05:14:15.974Z,24.82
2018-06-13T05:15:25.547Z,24.77
2018-06-13T05:16:35.615Z,24.78
2018-06-13T05:17:45.181Z,24.9
2018-06-13T05:18:55.261Z,24.92
2018-06-13T05:20:05.338Z,24.85
2018-06-13T05:21:15.146Z,25.12
2018-06-13T05:22:24.962Z,25.24
2018-06-13T05:23:34.772Z,25.38
2018-06-13T05:24:44.845Z,25.51
2018-06-13T05:25:54.919Z,25.81
2018-06-13T05:27:04.740Z,26.31
2018-06-13T05:28:14.805Z,26.82
2018-06-13T05:29:24.873Z,27.06
2018-06-13T05:30:34.948Z,27.09
2018-06-13T05:31:44.776Z,27
2018-06-13T05:32:54.858Z,27.33
2018-06-13T05:34:04.922Z,27.49
2018-06-13T05:35:14.739Z,28.17
2018-06-13T05:36:24.562Z,29.24
2018-06-13T05:37:34.645Z,29.69
2018-06-13T05:38:44.202Z,30.35
2018-06-13T05:39:54.024Z,30.4
2018-06-13T05:41:04.166Z,31.22
2018-06-13T05:42:13.974Z,31.81
2018-06-13T05:43:23.532Z,32.12
2018-06-13T05:44:33.636Z,32.35
2018-06-13T05:45:43.703Z,32.84
2018-06-13T05:46:53.807Z,33.12
2018-06-13T05:48:03.624Z,33.21
2018-06-13T05:49:13.705Z,32.46
2018-06-13T05:50:23.516Z,31.82
2018-06-13T05:51:33.579Z,31.36
2018-06-13T05:52:43.672Z,30.84
2018-06-13T05:53:53.740Z,30.62
2018-06-13T05:55:03.847Z,30.47
2018-06-13T05:56:13.653Z,30.26
2018-06-13T05:57:23.744Z,30.03
2018-06-13T05:58:33.579Z,29.81
2018-06-13T05:59:43.648Z,29.65
2018-06-13T06:00:53.479Z,29.7
2018-06-13T06:02:03.560Z,29.82
2018-06-13T06:03:13.383Z,29.95
2018-06-13T06:04:22.945Z,30.09
2018-06-13T06:05:33.032Z,29.87
2018-06-13T06:06:43.116Z,29.51
2018-06-13T06:07:53.209Z,29.21
2018-06-13T06:09:03.026Z,28.98
2018-06-13T06:10:13.160Z,28.94
2018-06-13T06:11:23.140Z,28.92
2018-06-13T06:12:33.246Z,28.97
2018-06-13T06:13:43.329Z,29.03
2018-06-13T06:14:52.893Z,29.11
2018-06-13T06:16:03.022Z,29.48
2018-06-13T06:17:13.130Z,29.52
2018-06-13T06:18:23.296Z,30.26
2018-06-13T06:19:33.081Z,29.94
2018-06-13T06:20:42.901Z,29.72
2018-06-13T06:21:52.992Z,29.51
2018-06-13T06:23:02.804Z,29.63
2018-06-13T06:24:12.875Z,29.52
2018-06-13T06:25:22.967Z,29.47
2018-06-13T06:26:33.053Z,29.66
2018-06-13T06:27:43.128Z,29.75
2018-06-13T06:28:53.206Z,30.18
2018-06-13T06:30:03.008Z,30.84
2018-06-13T06:31:13.085Z,31.31
2018-06-13T06:32:23.197Z,31.58
2018-06-13T06:33:33.027Z,31.68
2018-06-13T06:34:43.150Z,31.68
2018-06-13T06:35:53.228Z,31.81
2018-06-13T06:37:03.372Z,31.93
2018-06-13T06:38:13.191Z,31.93
2018-06-13T06:39:23.271Z,32.03
2018-06-13T06:40:33.345Z,32.09
2018-06-13T06:41:43.434Z,32.1
2018-06-13T06:42:53.266Z,32.1
2018-06-13T06:44:03.075Z,32.12
2018-06-13T06:45:13.190Z,32.27
2018-06-13T06:46:23.265Z,32.37
2018-06-13T06:47:33.361Z,32.45
2018-06-13T06:48:43.508Z,32.67
2018-06-13T06:49:53.362Z,32.65
2018-06-13T06:51:03.497Z,32.65
2018-06-13T06:52:13.621Z,32.57
2018-06-13T06:53:23.452Z,32.52
2018-06-13T06:54:33.520Z,32.5
2018-06-13T06:55:44.016Z,32.57
2018-06-13T06:56:53.939Z,32.5
2018-06-13T06:58:03.506Z,32.35
2018-06-13T06:59:13.620Z,32.13
2018-06-13T07:00:23.728Z,31.93
2018-06-13T07:01:33.832Z,31.74
2018-06-13T07:02:44.026Z,31.59
2018-06-13T07:03:54.291Z,31.43
2018-06-13T07:05:04.404Z,30.93
2018-06-13T07:06:14.242Z,30.57
2018-06-13T07:07:24.069Z,30.19
2018-06-13T07:08:34.134Z,29.98
2018-06-13T07:09:43.955Z,29.65
2018-06-13T07:10:53.768Z,29.75
2018-06-13T07:12:03.851Z,29.88
2018-06-13T07:13:14.292Z,30.02
2018-06-13T07:14:24.569Z,30.07
2018-06-13T07:15:34.418Z,30.02
2018-06-13T07:16:44.540Z,30.04
2018-06-13T07:17:54.290Z,30.13
2018-06-13T07:19:04.830Z,30.16
2018-06-13T07:20:14.978Z,30.18
2018-06-13T07:21:25.051Z,30.25
2018-06-13T07:22:35.138Z,30.25
2018-06-13T07:23:45.237Z,30.22
2018-06-13T07:24:55.469Z,30.32
2018-06-13T07:26:05.302Z,30.29
2018-06-13T07:27:15.406Z,30.56
2018-06-13T07:28:25.210Z,30.77
2018-06-13T07:29:35.326Z,31.01
2018-06-13T07:30:45.420Z,31.23
2018-06-13T07:31:55.512Z,31.3
2018-06-13T07:33:05.569Z,31.25
2018-06-13T07:34:15.724Z,30.96
2018-06-13T07:35:25.831Z,30.75
2018-06-13T07:36:35.923Z,30.59
2018-06-13T07:37:46.046Z,30.31
2018-06-13T07:38:56.135Z,30.09
2018-06-13T07:40:06.264Z,29.92
2018-06-13T07:41:16.100Z,29.77
2018-06-13T07:42:26.208Z,29.67
2018-06-13T07:43:36.349Z,29.47
2018-06-13T07:44:46.437Z,29.45
2018-06-13T07:45:56.517Z,29.28
2018-06-13T07:47:06.595Z,29.24
2018-06-13T07:48:16.408Z,29.1
2018-06-13T07:49:26.500Z,29.11
2018-06-13T07:50:36.602Z,29.15
2018-06-13T07:51:46.698Z,29.1
2018-06-13T07:52:56.785Z,29.42
2018-06-13T07:54:06.618Z,29.47
2018-06-13T07:55:16.933Z,29.76
2018-06-13T07:56:27.095Z,30.04
2018-06-13T07:57:37.217Z,30.22
2018-06-13T07:58:47.294Z,30.47
2018-06-13T07:59:57.117Z,30.71
2018-06-13T08:01:07.196Z,30.82
2018-06-13T08:02:17.432Z,31.01
2018-06-13T08:03:27.646Z,31.16
2018-06-13T08:04:37.704Z,31.31
2018-06-13T08:05:47.813Z,31.15
2018-06-13T08:06:57.682Z,31.19
2018-06-13T08:08:07.529Z,31.19
2018-06-13T08:09:17.607Z,31.4
2018-06-13T08:10:27.692Z,31.45
2018-06-13T08:11:37.776Z,31.7
2018-06-13T08:12:47.875Z,31.88
2018-06-13T08:13:57.981Z,32.1
2018-06-13T08:15:08.103Z,32.52
2018-06-13T08:16:18.211Z,32.81
2018-06-13T08:17:28.280Z,33.23
2018-06-13T08:18:38.420Z,33.37
2018-06-13T08:19:48.509Z,33.48
2018-06-13T08:20:58.601Z,33.75
2018-06-13T08:22:08.466Z,33.9
2018-06-13T08:23:18.537Z,33.9
2018-06-13T08:24:28.608Z,33.71
2018-06-13T08:25:38.439Z,33.53
2018-06-13T08:26:48.541Z,33.39
2018-06-13T08:27:58.630Z,33.2
2018-06-13T08:29:08.735Z,33.12
2018-06-13T08:30:18.877Z,33.01
2018-06-13T08:31:28.940Z,32.9
2018-06-13T08:32:39.036Z,32.8
2018-06-13T08:33:49.445Z,32.68
2018-06-13T08:34:59.595Z,32.59
2018-06-13T08:36:09.690Z,32.38
2018-06-13T08:37:19.775Z,32.25
2018-06-13T08:38:29.894Z,32.1
2018-06-13T08:39:39.737Z,31.95
2018-06-13T08:40:49.897Z,31.82
2018-06-13T08:42:00.053Z,31.68
2018-06-13T08:43:10.154Z,31.72
2018-06-13T08:44:20.280Z,31.87
2018-06-13T08:45:29.879Z,31.86
2018-06-13T08:46:39.963Z,32.19
2018-06-13T08:47:50.096Z,32.17
2018-06-13T08:48:59.915Z,32.13
2018-06-13T08:50:09.746Z,32.17
2018-06-13T08:51:19.868Z,32.17
2018-06-13T08:52:29.715Z,32.17
2018-06-13T08:53:39.874Z,32.16
2018-06-13T08:54:49.979Z,32.12
2018-06-13T08:56:00.065Z,32.27
2018-06-13T08:57:10.176Z,32.24
2018-06-13T08:58:20.293Z,32.13
2018-06-13T08:59:30.113Z,32.23
2018-06-13T09:00:40.245Z,32.16
2018-06-13T09:01:50.088Z,32.25
2018-06-13T09:03:00.163Z,32.23
2018-06-13T09:04:10.245Z,32.25
2018-06-13T09:05:20.311Z,32.28
2018-06-13T09:06:30.404Z,32.34
2018-06-13T09:07:40.490Z,32.28
2018-06-13T09:08:50.639Z,32.37
2018-06-13T09:10:00.819Z,32.43
2018-06-13T09:11:10.692Z,32.61
2018-06-13T09:12:20.794Z,32.9
2018-06-13T09:13:30.889Z,33.31
2018-06-13T09:14:40.993Z,33.61
2018-06-13T09:15:51.094Z,33.89
2018-06-13T09:17:01.342Z,33.74
2018-06-13T09:18:11.192Z,33.44
2018-06-13T09:19:21.351Z,33.18
2018-06-13T09:20:31.462Z,32.91
2018-06-13T09:21:41.285Z,32.65
2018-06-13T09:22:50.905Z,32.19
2018-06-13T09:24:00.729Z,32.1
2018-06-13T09:25:10.805Z,31.72
2018-06-13T09:26:20.885Z,31.44
2018-06-13T09:27:30.689Z,31.15
2018-06-13T09:28:40.871Z,30.77
2018-06-13T09:29:50.964Z,30.24
2018-06-13T09:31:01.047Z,30.06
2018-06-13T09:32:11.158Z,29.69
2018-06-13T09:33:21.234Z,29.45
2018-06-13T09:34:31.346Z,29.26
2018-06-13T09:35:41.439Z,29.08
2018-06-13T09:36:51.283Z,28.8
2018-06-13T09:38:01.372Z,28.75
2018-06-13T09:39:11.199Z,28.68
2018-06-13T09:40:20.793Z,28.48
2018-06-13T09:41:30.623Z,28.42
2018-06-13T09:42:40.465Z,28.3
2018-06-13T09:43:50.571Z,28.26
2018-06-13T09:45:00.469Z,28.2
2018-06-13T09:46:17.165Z,28.23
2018-06-13T09:47:26.995Z,28.2
2018-06-13T09:48:37.142Z,28.2
2018-06-13T09:49:47.243Z,28.26
2018-06-13T09:50:57.562Z,28.27
2018-06-13T09:52:07.129Z,28.48
2018-06-13T09:53:17.239Z,28.63
2018-06-13T09:54:27.425Z,28.92
2018-06-13T09:55:37.575Z,29.11
2018-06-13T09:56:47.560Z,29.29
2018-06-13T09:57:57.864Z,29.48
2018-06-13T09:59:07.683Z,29.89
2018-06-13T10:00:17.783Z,30.44
2018-06-13T10:01:27.876Z,31.06
2018-06-13T10:02:37.701Z,31.58
2018-06-13T10:03:47.542Z,32.09
2018-06-13T10:04:57.640Z,32.53
2018-06-13T10:06:07.739Z,32.76
2018-06-13T10:07:17.807Z,32.84
2018-06-13T10:08:27.892Z,32.9
2018-06-13T10:09:37.699Z,32.87
2018-06-13T10:10:47.268Z,33.23
2018-06-13T10:11:57.380Z,33.41
2018-06-13T10:13:07.506Z,33.83
2018-06-13T10:14:17.578Z,34.12
2018-06-13T10:15:27.654Z,34.36
2018-06-13T10:16:37.727Z,34.33
2018-06-13T10:17:47.547Z,34.43
2018-06-13T10:18:57.676Z,34.4
2018-06-13T10:20:07.511Z,34.45
2018-06-13T10:21:17.377Z,34.3
2018-06-13T10:22:27.471Z,33.97
2018-06-13T10:23:37.550Z,33.8
2018-06-13T10:24:47.362Z,33.62
2018-06-13T10:25:57.215Z,33.34
2018-06-13T10:27:07.315Z,33.2
2018-06-13T10:28:17.409Z,33.06
2018-06-13T10:29:27.484Z,32.96
2018-06-13T10:30:37.582Z,32.74
2018-06-13T10:31:47.163Z,32.68
2018-06-13T10:32:57.496Z,32.59
2018-06-13T10:34:07.595Z,32.47
2018-06-13T10:35:17.760Z,32.5
2018-06-13T10:36:27.869Z,32.57
2018-06-13T10:37:37.722Z,32.49
2018-06-13T10:38:48.018Z,32.47
2018-06-13T10:39:57.831Z,32.49
2018-06-13T10:41:07.707Z,32.56
2018-06-13T10:42:17.802Z,32.47
2018-06-13T10:43:27.880Z,32.52
2018-06-13T10:44:37.711Z,32.69
2018-06-13T10:45:47.542Z,32.61
2018-06-13T10:46:57.674Z,32.64
2018-06-13T10:48:07.500Z,32.56
2018-06-13T10:49:17.320Z,32.61
2018-06-13T10:50:27.427Z,32.68
2018-06-13T10:51:37.254Z,32.79
2018-06-13T10:52:47.333Z,32.99
2018-06-13T10:53:57.433Z,33.21
2018-06-13T10:55:07.532Z,33.31
2018-06-13T10:56:17.432Z,33.46
2018-06-13T10:57:27.526Z,33.62
2018-06-13T10:58:37.606Z,33.52
2018-06-13T10:59:47.704Z,33.65
2018-06-13T11:00:57.800Z,33.77
2018-06-13T11:02:07.896Z,34.06
2018-06-13T11:03:17.986Z,34.26
2018-06-13T11:04:28.052Z,34.36
2018-06-13T11:05:38.130Z,34.21
2018-06-13T11:06:48.215Z,34.17
2018-06-13T11:07:58.296Z,34.17
2018-06-13T11:09:08.386Z,34.27
2018-06-13T11:10:18.476Z,34.36
2018-06-13T11:11:28.585Z,34.39
2018-06-13T11:12:38.673Z,34.26
2018-06-13T11:13:48.748Z,34.1
2018-06-13T11:14:58.577Z,34.15
2018-06-13T11:16:08.687Z,34.21
2018-06-13T11:17:18.527Z,34.41
2018-06-13T11:18:28.621Z,34.64
2018-06-13T11:19:38.965Z,34.83
2018-06-13T11:20:49.108Z,34.93
2018-06-13T11:21:59.196Z,34.83
2018-06-13T11:23:09.028Z,34.75
2018-06-13T11:24:19.112Z,34.79
2018-06-13T11:25:29.203Z,35.06
2018-06-13T11:26:39.036Z,35.28
2018-06-13T11:27:49.196Z,35.4
2018-06-13T11:28:59.300Z,35.39
2018-06-13T11:30:09.403Z,35.4
2018-06-13T11:31:19.507Z,35.23
2018-06-13T11:32:29.646Z,35.05
2018-06-13T11:33:39.514Z,34.96
2018-06-13T11:34:49.589Z,34.78
2018-06-13T11:35:59.686Z,34.55
2018-06-13T11:37:09.514Z,34.46
2018-06-13T11:38:19.075Z,34.32
2018-06-13T11:39:29.150Z,34.4
2018-06-13T11:40:39.226Z,34.52
2018-06-13T11:41:49.312Z,34.64
2018-06-13T11:42:59.409Z,34.84
2018-06-13T11:44:09.512Z,35.04
2018-06-13T11:45:19.621Z,35.38
2018-06-13T11:46:29.726Z,35.61
2018-06-13T11:47:39.823Z,35.9
2018-06-13T11:48:49.913Z,36.12
2018-06-13T11:49:59.997Z,36.19
2018-06-13T11:51:10.105Z,35.98
2018-06-13T11:52:19.933Z,35.84
2018-06-13T11:53:30.088Z,35.77
2018-06-13T11:54:40.009Z,35.69
2018-06-13T11:55:50.103Z,35.65
2018-06-13T11:57:00.194Z,35.57
2018-06-13T11:58:10.026Z,35.47
2018-06-13T11:59:19.855Z,35.21
2018-06-13T12:00:30.199Z,34.86
2018-06-13T12:01:40.414Z,34.67
2018-06-13T12:02:50.656Z,34.4
2018-06-13T12:04:00.747Z,34.32
2018-06-13T12:05:10.592Z,34.29
2018-06-13T12:06:20.686Z,34.18
2018-06-13T12:07:30.810Z,34.12
2018-06-13T12:08:40.898Z,34
2018-06-13T12:09:51.003Z,33.9
2018-06-13T12:11:00.703Z,34.03
2018-06-13T12:12:10.969Z,34
2018-06-13T12:13:21.057Z,34.11
2018-06-13T12:14:31.191Z,34.1
2018-06-13T12:15:41.288Z,34.12
2018-06-13T12:16:51.505Z,34.05
2018-06-13T12:18:01.676Z,34.18
2018-06-13T12:19:11.753Z,34.34
2018-06-13T12:20:21.909Z,34.4
2018-06-13T12:21:32.002Z,34.49
2018-06-13T12:22:42.205Z,34.61
2018-06-13T12:23:52.291Z,34.64
2018-06-13T12:25:02.386Z,34.54
2018-06-13T12:26:12.489Z,34.45
2018-06-13T12:27:22.305Z,34.33
2018-06-13T12:28:32.417Z,34.1
2018-06-13T12:29:42.331Z,34.06
2018-06-13T12:30:52.440Z,33.74
2018-06-13T12:32:02.870Z,33.62
2018-06-13T12:33:12.449Z,33.46
2018-06-13T12:34:22.470Z,33.29
2018-06-13T12:35:32.353Z,33.26
2018-06-13T12:36:42.474Z,33.16
2018-06-13T12:37:52.620Z,33.18
2018-06-13T12:39:02.784Z,33.2
2018-06-13T12:40:13.110Z,33.12
2018-06-13T12:41:23.313Z,33.05
2018-06-13T12:42:33.435Z,32.93
2018-06-13T12:43:43.525Z,32.76
2018-06-13T12:44:53.610Z,32.71
2018-06-13T12:46:03.702Z,32.74
2018-06-13T12:47:13.266Z,32.9
2018-06-13T12:48:23.122Z,32.94
2018-06-13T12:49:33.215Z,33.05
2018-06-13T12:50:43.334Z,33.03
2018-06-13T12:51:53.177Z,33.08
2018-06-13T12:53:03.031Z,33.05
2018-06-13T12:54:13.125Z,32.98
2018-06-13T12:55:22.941Z,32.98
2018-06-13T12:56:32.785Z,33.06
2018-06-13T12:57:42.627Z,33.16
2018-06-13T12:58:52.980Z,33.18
2018-06-13T13:00:03.459Z,33.18
2018-06-13T13:01:13.555Z,32.93
2018-06-13T13:02:23.368Z,32.72
2018-06-13T13:03:33.212Z,32.45
2018-06-13T13:04:43.184Z,32.27
2018-06-13T13:05:53.124Z,32.2
2018-06-13T13:07:02.939Z,32.15
2018-06-13T13:08:12.993Z,32.06
2018-06-13T13:09:23.061Z,32.03
2018-06-13T13:10:32.722Z,31.81
2018-06-13T13:11:42.730Z,31.88
2018-06-13T13:12:52.844Z,31.75
2018-06-13T13:14:03.042Z,31.65
2018-06-13T13:15:13.107Z,31.53
2018-06-13T13:16:23.187Z,31.44
2018-06-13T13:17:33.353Z,31.41
2018-06-13T13:18:43.399Z,31.3
2018-06-13T13:19:53.600Z,31.31
2018-06-13T13:21:03.652Z,31.21
2018-06-13T13:22:13.465Z,31.23
2018-06-13T13:23:23.574Z,31.19
2018-06-13T13:24:32.839Z,31.23
2018-06-13T13:25:42.883Z,31.26
2018-06-13T13:26:52.989Z,31.31
2018-06-13T13:28:03.147Z,31.26
2018-06-13T13:29:13.337Z,31.12
2018-06-13T13:30:23.639Z,30.86
2018-06-13T13:31:33.713Z,30.73
2018-06-13T13:32:43.765Z,30.37
2018-06-13T13:33:53.893Z,30.13
2018-06-13T13:35:03.755Z,29.92
2018-06-13T13:36:13.875Z,29.61
2018-06-13T13:37:23.930Z,29.52
2018-06-13T13:38:33.714Z,29.45
2018-06-13T13:39:43.281Z,29.32
2018-06-13T13:40:53.142Z,29.03
2018-06-13T13:42:03.208Z,28.86
2018-06-13T13:43:13.289Z,28.61
2018-06-13T13:44:23.342Z,28.33
2018-06-13T13:45:33.699Z,27.99
2018-06-13T13:46:43.777Z,27.83
2018-06-13T13:47:53.861Z,27.52
2018-06-13T13:49:03.953Z,27.36
2018-06-13T13:50:14.046Z,27.18
2018-06-13T13:51:24.130Z,27.09
2018-06-13T13:52:34.223Z,26.99
2018-06-13T13:53:44.327Z,26.82
2018-06-13T13:54:54.424Z,26.74
2018-06-13T13:56:04.533Z,26.54
2018-06-13T13:57:14.612Z,26.64
2018-06-13T13:58:24.182Z,26.57
2018-06-13T13:59:34.273Z,26.44
2018-06-13T14:00:44.374Z,26.41
2018-06-13T14:01:54.454Z,26.32
2018-06-13T14:03:04.341Z,26.35
2018-06-13T14:04:14.495Z,26.22
2018-06-13T14:05:24.582Z,26.3
2018-06-13T14:06:34.713Z,26.12
2018-06-13T14:07:44.876Z,26.11
2018-06-13T14:08:55.012Z,26.09
2018-06-13T14:10:05.214Z,26
2018-06-13T14:11:15.378Z,25.96
2018-06-13T14:12:25.590Z,25.84
2018-06-13T14:13:35.830Z,25.84
2018-06-13T14:14:45.946Z,25.76
2018-06-13T14:15:56.077Z,25.64
2018-06-13T14:17:06.230Z,25.62
2018-06-13T14:18:16.359Z,25.59
2018-06-13T14:19:26.229Z,25.47
2018-06-13T14:20:36.349Z,25.41
2018-06-13T14:21:46.520Z,25.33
2018-06-13T14:22:56.635Z,25.29
2018-06-13T14:24:06.217Z,25.17
2018-06-13T14:25:16.335Z,25.17
2018-06-13T14:26:26.450Z,25.14
2018-06-13T14:27:36.618Z,25.12
2018-06-13T14:28:46.466Z,25.05
2018-06-13T14:29:56.313Z,25
2018-06-13T14:31:06.451Z,24.9
2018-06-13T14:32:16.571Z,24.8
2018-06-13T14:33:26.475Z,24.77
2018-06-13T14:34:36.572Z,24.66
2018-06-13T14:35:46.684Z,24.63
2018-06-13T14:36:56.841Z,24.49
2018-06-13T14:38:06.967Z,24.44
2018-06-13T14:39:17.139Z,24.36
2018-06-13T14:40:27.276Z,24.39
2018-06-13T14:41:37.391Z,24.27
2018-06-13T14:42:47.241Z,24.3
2018-06-13T14:43:57.354Z,24.34
2018-06-13T14:45:07.332Z,24.3
2018-06-13T14:46:17.726Z,24.36
2018-06-13T14:47:27.848Z,24.32
2018-06-13T14:48:38.111Z,24.3
2018-06-13T14:49:48.290Z,24.37
2018-06-13T14:50:58.499Z,24.34
2018-06-13T14:52:08.618Z,24.33
2018-06-13T14:53:18.718Z,24.34
2018-06-13T14:54:28.565Z,24.46
2018-06-13T14:55:38.423Z,24.52
2018-06-13T14:56:48.721Z,24.56
2018-06-13T14:57:58.777Z,24.45
2018-06-13T14:59:08.910Z,24.56
2018-06-13T15:00:19.020Z,24.46
2018-06-13T15:01:29.132Z,24.42
2018-06-13T15:02:39.308Z,24.46
2018-06-13T15:03:49.430Z,24.34
2018-06-13T15:04:59.541Z,24.37
2018-06-13T15:06:09.651Z,24.26
2018-06-13T15:07:19.807Z,24.44
2018-06-13T15:08:29.909Z,24.39
2018-06-13T15:09:40.044Z,24.44
2018-06-13T15:10:50.179Z,24.48
2018-06-13T15:12:00.031Z,24.37
2018-06-13T15:13:10.227Z,24.33
2018-06-13T15:14:19.876Z,24.32
2018-06-13T15:15:30.001Z,24.17
2018-06-13T15:16:39.854Z,24.09
2018-06-13T15:17:49.432Z,23.97
2018-06-13T15:18:59.605Z,23.9
2018-06-13T15:20:09.497Z,23.71
2018-06-13T15:21:19.593Z,23.53
2018-06-13T15:22:29.728Z,23.44
2018-06-13T15:23:39.846Z,23.28
2018-06-13T15:24:49.965Z,23.19
2018-06-13T15:26:00.086Z,23.01
2018-06-13T15:27:10.237Z,22.78
2018-06-13T15:28:20.356Z,22.63
2018-06-13T15:29:30.469Z,22.55
2018-06-13T15:30:40.588Z,22.54
2018-06-13T15:31:50.212Z,22.36
2018-06-13T15:33:00.338Z,22.38
2018-06-13T15:34:10.451Z,22.27
2018-06-13T15:35:20.572Z,22.22
2018-06-13T15:36:30.932Z,22.14